sensor_id;sensor_type;location;lat;lon;timestamp;temperature;humidity
23259;DHT22;11798;51.528;7.240;2023-04-15T00:00:05;7.80;99.90
23259;DHT22;11798;51.528;7.240;2023-04-15T00:02:31;7.80;99.90
23259;DHT22;11798;51.528;7.240;2023-04-15T00:04:57;7.80;99.90
23259;DHT22;11798;51.528;7.240;2023-04-15T00:07:22;7.70;99.90
23259;DHT22;11798;51.528;7.240;2023-04-15T00:09:48;7.70;99.90
23259;DHT22;11798;51.528;7.240;2023-04-15T00:12:14;7.60;99.90
23259;DHT22;11798;51.528;7.240;2023-04-15T00:14:39;7.60;99.90
23259;DHT22;11798;51.528;7.240;2023-04-15T00:17:05;7.60;99.90
23259;DHT22;11798;51.528;7.240;2023-04-15T00:19:31;7.50;99.90
23259;DHT22;11798;51.528;7.240;2023-04-15T00:21:58;7.50;99.90
23259;DHT22;11798;51.528;7.240;2023-04-15T00:24:23;7.50;99.90
23259;DHT22;11798;51.528;7.240;2023-04-15T00:26:49;7.40;99.90
23259;DHT22;11798;51.528;7.240;2023-04-15T00:29:15;7.40;99.90
23259;DHT22;11798;51.528;7.240;2023-04-15T00:31:40;7.40;99.90
23259;DHT22;11798;51.528;7.240;2023-04-15T00:34:06;7.30;99.90
23259;DHT22;11798;51.528;7.240;2023-04-15T00:36:32;7.30;99.90
23259;DHT22;11798;51.528;7.240;2023-04-15T00:38:59;7.30;99.90
23259;DHT22;11798;51.528;7.240;2023-04-15T00:41:25;7.30;99.90
23259;DHT22;11798;51.528;7.240;2023-04-15T00:43:51;7.20;99.90
23259;DHT22;11798;51.528;7.240;2023-04-15T00:46:18;7.20;99.90
23259;DHT22;11798;51.528;7.240;2023-04-15T00:48:45;7.10;99.90
23259;DHT22;11798;51.528;7.240;2023-04-15T00:51:12;7.20;99.90
23259;DHT22;11798;51.528;7.240;2023-04-15T00:53:38;7.10;99.90
23259;DHT22;11798;51.528;7.240;2023-04-15T00:56:05;7.10;99.90
23259;DHT22;11798;51.528;7.240;2023-04-15T00:58:31;7.10;99.90
23259;DHT22;11798;51.528;7.240;2023-04-15T01:00:57;7.10;99.90
23259;DHT22;11798;51.528;7.240;2023-04-15T01:06:31;7.00;99.90
23259;DHT22;11798;51.528;7.240;2023-04-15T01:08:58;7.00;99.90
23259;DHT22;11798;51.528;7.240;2023-04-15T01:11:25;6.90;99.90
23259;DHT22;11798;51.528;7.240;2023-04-15T01:13:51;6.90;99.90
23259;DHT22;11798;51.528;7.240;2023-04-15T01:16:17;6.80;99.90
23259;DHT22;11798;51.528;7.240;2023-04-15T01:18:43;6.80;99.90
23259;DHT22;11798;51.528;7.240;2023-04-15T01:21:10;6.80;99.90
23259;DHT22;11798;51.528;7.240;2023-04-15T01:23:36;6.80;99.90
23259;DHT22;11798;51.528;7.240;2023-04-15T01:26:04;6.70;99.90
23259;DHT22;11798;51.528;7.240;2023-04-15T01:28:33;6.70;99.90
23259;DHT22;11798;51.528;7.240;2023-04-15T01:31:25;6.60;99.90
23259;DHT22;11798;51.528;7.240;2023-04-15T01:33:51;6.70;99.90
23259;DHT22;11798;51.528;7.240;2023-04-15T01:36:17;6.60;99.90
23259;DHT22;11798;51.528;7.240;2023-04-15T01:38:42;6.70;99.90
23259;DHT22;11798;51.528;7.240;2023-04-15T01:41:08;6.70;99.90
23259;DHT22;11798;51.528;7.240;2023-04-15T01:43:34;6.60;99.90
23259;DHT22;11798;51.528;7.240;2023-04-15T01:46:03;6.60;99.90
23259;DHT22;11798;51.528;7.240;2023-04-15T01:48:28;6.60;99.90
23259;DHT22;11798;51.528;7.240;2023-04-15T01:50:54;6.60;99.90
23259;DHT22;11798;51.528;7.240;2023-04-15T01:53:23;6.60;99.90
23259;DHT22;11798;51.528;7.240;2023-04-15T01:55:49;6.50;99.90
23259;DHT22;11798;51.528;7.240;2023-04-15T01:58:15;6.50;99.90
23259;DHT22;11798;51.528;7.240;2023-04-15T02:00:40;6.60;99.90
23259;DHT22;11798;51.528;7.240;2023-04-15T02:03:07;6.50;99.90
23259;DHT22;11798;51.528;7.240;2023-04-15T02:05:32;6.50;99.90
23259;DHT22;11798;51.528;7.240;2023-04-15T02:07:58;6.50;99.90
23259;DHT22;11798;51.528;7.240;2023-04-15T02:10:24;6.60;99.90
23259;DHT22;11798;51.528;7.240;2023-04-15T02:12:49;6.50;99.90
23259;DHT22;11798;51.528;7.240;2023-04-15T02:15:15;6.50;99.90
23259;DHT22;11798;51.528;7.240;2023-04-15T02:17:41;6.40;99.90
23259;DHT22;11798;51.528;7.240;2023-04-15T02:20:10;6.40;99.90
23259;DHT22;11798;51.528;7.240;2023-04-15T02:22:36;6.40;99.90
23259;DHT22;11798;51.528;7.240;2023-04-15T02:25:02;6.30;99.90
23259;DHT22;11798;51.528;7.240;2023-04-15T02:27:27;6.30;99.90
23259;DHT22;11798;51.528;7.240;2023-04-15T02:29:53;6.20;99.90
23259;DHT22;11798;51.528;7.240;2023-04-15T02:32:19;6.30;99.90
23259;DHT22;11798;51.528;7.240;2023-04-15T02:34:46;6.30;99.90
23259;DHT22;11798;51.528;7.240;2023-04-15T02:37:13;6.20;99.90
23259;DHT22;11798;51.528;7.240;2023-04-15T02:39:38;6.10;99.90
23259;DHT22;11798;51.528;7.240;2023-04-15T02:42:04;6.10;99.90
23259;DHT22;11798;51.528;7.240;2023-04-15T02:44:32;6.10;99.90
23259;DHT22;11798;51.528;7.240;2023-04-15T02:46:59;6.10;99.90
23259;DHT22;11798;51.528;7.240;2023-04-15T02:49:25;6.10;99.90
23259;DHT22;11798;51.528;7.240;2023-04-15T02:51:51;6.10;99.90
23259;DHT22;11798;51.528;7.240;2023-04-15T02:54:17;6.00;99.90
23259;DHT22;11798;51.528;7.240;2023-04-15T02:56:44;5.90;99.90
23259;DHT22;11798;51.528;7.240;2023-04-15T02:59:10;5.90;99.90
23259;DHT22;11798;51.528;7.240;2023-04-15T03:01:36;5.80;99.90
23259;DHT22;11798;51.528;7.240;2023-04-15T03:04:02;5.80;99.90
23259;DHT22;11798;51.528;7.240;2023-04-15T03:06:28;5.90;99.90
23259;DHT22;11798;51.528;7.240;2023-04-15T03:08:53;5.80;99.90
23259;DHT22;11798;51.528;7.240;2023-04-15T03:11:19;5.80;99.90
23259;DHT22;11798;51.528;7.240;2023-04-15T03:13:46;5.80;99.90
23259;DHT22;11798;51.528;7.240;2023-04-15T03:16:11;5.80;99.90
23259;DHT22;11798;51.528;7.240;2023-04-15T03:18:37;5.80;99.90
23259;DHT22;11798;51.528;7.240;2023-04-15T03:21:03;5.70;99.90
23259;DHT22;11798;51.528;7.240;2023-04-15T03:23:30;5.60;99.90
23259;DHT22;11798;51.528;7.240;2023-04-15T03:25:56;5.60;99.90
23259;DHT22;11798;51.528;7.240;2023-04-15T03:28:23;5.60;99.90
23259;DHT22;11798;51.528;7.240;2023-04-15T03:30:49;5.50;99.90
23259;DHT22;11798;51.528;7.240;2023-04-15T03:33:14;5.50;99.90
23259;DHT22;11798;51.528;7.240;2023-04-15T03:35:40;5.50;99.90
23259;DHT22;11798;51.528;7.240;2023-04-15T03:38:06;5.50;99.90
23259;DHT22;11798;51.528;7.240;2023-04-15T03:40:31;5.50;99.90
23259;DHT22;11798;51.528;7.240;2023-04-15T03:42:57;5.50;99.90
23259;DHT22;11798;51.528;7.240;2023-04-15T03:45:23;5.50;99.90
23259;DHT22;11798;51.528;7.240;2023-04-15T03:47:48;5.50;99.90
23259;DHT22;11798;51.528;7.240;2023-04-15T03:50:14;5.50;99.90
23259;DHT22;11798;51.528;7.240;2023-04-15T03:52:40;5.40;99.90
23259;DHT22;11798;51.528;7.240;2023-04-15T03:55:05;5.40;99.90
23259;DHT22;11798;51.528;7.240;2023-04-15T03:57:33;5.50;99.90
23259;DHT22;11798;51.528;7.240;2023-04-15T04:00:06;5.40;99.90
23259;DHT22;11798;51.528;7.240;2023-04-15T04:02:32;5.40;99.90
23259;DHT22;11798;51.528;7.240;2023-04-15T04:04:57;5.40;99.90
23259;DHT22;11798;51.528;7.240;2023-04-15T04:07:24;5.40;99.90
23259;DHT22;11798;51.528;7.240;2023-04-15T04:09:50;5.30;99.90
23259;DHT22;11798;51.528;7.240;2023-04-15T04:12:16;5.30;99.90
23259;DHT22;11798;51.528;7.240;2023-04-15T04:14:41;5.30;99.90
23259;DHT22;11798;51.528;7.240;2023-04-15T04:17:07;5.30;99.90
23259;DHT22;11798;51.528;7.240;2023-04-15T04:19:33;5.30;99.90
23259;DHT22;11798;51.528;7.240;2023-04-15T04:22:00;5.20;99.90
23259;DHT22;11798;51.528;7.240;2023-04-15T04:24:26;5.20;99.90
23259;DHT22;11798;51.528;7.240;2023-04-15T04:26:51;5.20;99.90
23259;DHT22;11798;51.528;7.240;2023-04-15T04:29:17;5.20;99.90
23259;DHT22;11798;51.528;7.240;2023-04-15T04:31:43;5.20;99.90
23259;DHT22;11798;51.528;7.240;2023-04-15T04:34:08;5.10;99.90
23259;DHT22;11798;51.528;7.240;2023-04-15T04:36:34;5.20;99.90
23259;DHT22;11798;51.528;7.240;2023-04-15T04:38:59;5.10;99.90
23259;DHT22;11798;51.528;7.240;2023-04-15T04:41:26;5.10;99.90
23259;DHT22;11798;51.528;7.240;2023-04-15T04:43:51;5.10;99.90
23259;DHT22;11798;51.528;7.240;2023-04-15T04:46:17;5.20;99.90
23259;DHT22;11798;51.528;7.240;2023-04-15T04:48:43;5.10;99.90
23259;DHT22;11798;51.528;7.240;2023-04-15T04:51:09;5.10;99.90
23259;DHT22;11798;51.528;7.240;2023-04-15T04:53:35;5.10;99.90
23259;DHT22;11798;51.528;7.240;2023-04-15T04:56:02;5.10;99.90
23259;DHT22;11798;51.528;7.240;2023-04-15T04:58:28;5.10;99.90
23259;DHT22;11798;51.528;7.240;2023-04-15T05:00:53;5.10;99.90
23259;DHT22;11798;51.528;7.240;2023-04-15T05:03:19;5.10;99.90
23259;DHT22;11798;51.528;7.240;2023-04-15T05:05:46;5.10;99.90
23259;DHT22;11798;51.528;7.240;2023-04-15T05:08:13;5.10;99.90
23259;DHT22;11798;51.528;7.240;2023-04-15T05:10:39;5.10;99.90
23259;DHT22;11798;51.528;7.240;2023-04-15T05:13:05;5.10;99.90
23259;DHT22;11798;51.528;7.240;2023-04-15T05:15:31;5.10;99.90
23259;DHT22;11798;51.528;7.240;2023-04-15T05:17:57;5.10;99.90
23259;DHT22;11798;51.528;7.240;2023-04-15T05:20:23;5.10;99.90
23259;DHT22;11798;51.528;7.240;2023-04-15T05:22:49;5.20;99.90
23259;DHT22;11798;51.528;7.240;2023-04-15T05:25:14;5.20;99.90
23259;DHT22;11798;51.528;7.240;2023-04-15T05:27:40;5.20;99.90
23259;DHT22;11798;51.528;7.240;2023-04-15T05:30:07;5.20;99.90
23259;DHT22;11798;51.528;7.240;2023-04-15T05:32:33;5.30;99.90
23259;DHT22;11798;51.528;7.240;2023-04-15T05:34:59;5.30;99.90
23259;DHT22;11798;51.528;7.240;2023-04-15T05:37:25;5.30;99.90
23259;DHT22;11798;51.528;7.240;2023-04-15T05:39:50;5.40;99.90
23259;DHT22;11798;51.528;7.240;2023-04-15T05:42:16;5.40;99.90
23259;DHT22;11798;51.528;7.240;2023-04-15T05:44:42;5.50;99.90
23259;DHT22;11798;51.528;7.240;2023-04-15T05:47:08;5.60;99.90
23259;DHT22;11798;51.528;7.240;2023-04-15T05:49:34;5.60;99.90
23259;DHT22;11798;51.528;7.240;2023-04-15T05:52:00;5.60;99.90
23259;DHT22;11798;51.528;7.240;2023-04-15T05:54:26;5.70;99.90
23259;DHT22;11798;51.528;7.240;2023-04-15T05:56:52;5.80;99.90
23259;DHT22;11798;51.528;7.240;2023-04-15T05:59:18;5.80;99.90
23259;DHT22;11798;51.528;7.240;2023-04-15T06:01:44;5.90;99.90
23259;DHT22;11798;51.528;7.240;2023-04-15T06:04:09;6.00;99.90
23259;DHT22;11798;51.528;7.240;2023-04-15T06:06:36;5.90;99.90
23259;DHT22;11798;51.528;7.240;2023-04-15T06:09:02;6.00;99.90
23259;DHT22;11798;51.528;7.240;2023-04-15T06:11:28;6.00;99.90
23259;DHT22;11798;51.528;7.240;2023-04-15T06:13:54;6.20;99.90
23259;DHT22;11798;51.528;7.240;2023-04-15T06:16:19;6.30;99.90
23259;DHT22;11798;51.528;7.240;2023-04-15T06:18:45;6.30;99.90
23259;DHT22;11798;51.528;7.240;2023-04-15T06:21:11;6.30;99.90
23259;DHT22;11798;51.528;7.240;2023-04-15T06:23:37;6.40;99.90
23259;DHT22;11798;51.528;7.240;2023-04-15T06:26:02;6.50;99.90
23259;DHT22;11798;51.528;7.240;2023-04-15T06:28:28;6.50;99.90
23259;DHT22;11798;51.528;7.240;2023-04-15T06:30:54;6.60;99.90
23259;DHT22;11798;51.528;7.240;2023-04-15T06:33:20;6.70;99.90
23259;DHT22;11798;51.528;7.240;2023-04-15T06:35:45;6.60;99.90
23259;DHT22;11798;51.528;7.240;2023-04-15T06:38:12;6.70;99.90
23259;DHT22;11798;51.528;7.240;2023-04-15T06:40:38;6.80;99.90
23259;DHT22;11798;51.528;7.240;2023-04-15T06:43:05;6.80;99.90
23259;DHT22;11798;51.528;7.240;2023-04-15T06:45:30;6.80;99.90
23259;DHT22;11798;51.528;7.240;2023-04-15T06:47:56;6.90;99.90
23259;DHT22;11798;51.528;7.240;2023-04-15T06:50:22;6.90;99.90
23259;DHT22;11798;51.528;7.240;2023-04-15T06:52:48;7.00;99.90
23259;DHT22;11798;51.528;7.240;2023-04-15T06:55:14;7.00;99.90
23259;DHT22;11798;51.528;7.240;2023-04-15T06:57:39;7.00;99.90
23259;DHT22;11798;51.528;7.240;2023-04-15T07:00:06;7.00;99.90
23259;DHT22;11798;51.528;7.240;2023-04-15T07:02:32;7.00;99.90
23259;DHT22;11798;51.528;7.240;2023-04-15T07:04:58;7.10;99.90
23259;DHT22;11798;51.528;7.240;2023-04-15T07:07:23;7.00;99.90
23259;DHT22;11798;51.528;7.240;2023-04-15T07:09:50;7.00;99.90
23259;DHT22;11798;51.528;7.240;2023-04-15T07:12:18;7.20;99.90
23259;DHT22;11798;51.528;7.240;2023-04-15T07:14:43;7.30;99.90
23259;DHT22;11798;51.528;7.240;2023-04-15T07:17:09;7.30;99.90
23259;DHT22;11798;51.528;7.240;2023-04-15T07:19:37;7.50;99.90
23259;DHT22;11798;51.528;7.240;2023-04-15T07:22:02;7.60;99.90
23259;DHT22;11798;51.528;7.240;2023-04-15T07:24:28;7.70;99.90
23259;DHT22;11798;51.528;7.240;2023-04-15T07:26:54;7.80;99.90
23259;DHT22;11798;51.528;7.240;2023-04-15T07:29:24;7.80;99.90
23259;DHT22;11798;51.528;7.240;2023-04-15T07:31:49;7.80;99.90
23259;DHT22;11798;51.528;7.240;2023-04-15T07:34:15;8.00;99.90
23259;DHT22;11798;51.528;7.240;2023-04-15T07:36:41;8.20;99.90
23259;DHT22;11798;51.528;7.240;2023-04-15T07:39:07;8.20;99.90
23259;DHT22;11798;51.528;7.240;2023-04-15T07:41:33;8.20;99.90
23259;DHT22;11798;51.528;7.240;2023-04-15T07:43:59;8.30;99.90
23259;DHT22;11798;51.528;7.240;2023-04-15T07:46:25;8.40;99.90
23259;DHT22;11798;51.528;7.240;2023-04-15T07:48:52;8.40;99.90
23259;DHT22;11798;51.528;7.240;2023-04-15T07:51:18;8.50;99.90
23259;DHT22;11798;51.528;7.240;2023-04-15T07:53:46;8.60;99.90
23259;DHT22;11798;51.528;7.240;2023-04-15T07:56:11;8.70;99.90
23259;DHT22;11798;51.528;7.240;2023-04-15T07:58:37;8.80;99.90
23259;DHT22;11798;51.528;7.240;2023-04-15T08:01:03;8.90;99.90
23259;DHT22;11798;51.528;7.240;2023-04-15T08:03:29;8.90;99.90
23259;DHT22;11798;51.528;7.240;2023-04-15T08:05:56;8.80;99.90
23259;DHT22;11798;51.528;7.240;2023-04-15T08:08:21;8.90;99.90
23259;DHT22;11798;51.528;7.240;2023-04-15T08:10:47;8.90;99.90
23259;DHT22;11798;51.528;7.240;2023-04-15T08:13:13;9.00;99.90
23259;DHT22;11798;51.528;7.240;2023-04-15T08:15:38;9.10;99.90
23259;DHT22;11798;51.528;7.240;2023-04-15T08:18:04;9.10;99.90
23259;DHT22;11798;51.528;7.240;2023-04-15T08:20:30;9.30;99.90
23259;DHT22;11798;51.528;7.240;2023-04-15T08:22:55;9.30;99.90
23259;DHT22;11798;51.528;7.240;2023-04-15T08:25:21;9.50;99.90
23259;DHT22;11798;51.528;7.240;2023-04-15T08:27:47;9.60;99.90
23259;DHT22;11798;51.528;7.240;2023-04-15T08:30:13;9.70;99.90
23259;DHT22;11798;51.528;7.240;2023-04-15T08:32:39;9.80;99.90
23259;DHT22;11798;51.528;7.240;2023-04-15T08:35:05;9.80;99.90
23259;DHT22;11798;51.528;7.240;2023-04-15T08:37:30;9.70;99.90
23259;DHT22;11798;51.528;7.240;2023-04-15T08:39:56;9.70;99.90
23259;DHT22;11798;51.528;7.240;2023-04-15T08:42:40;9.80;99.90
23259;DHT22;11798;51.528;7.240;2023-04-15T08:45:08;9.70;99.90
23259;DHT22;11798;51.528;7.240;2023-04-15T08:47:36;9.70;99.90
23259;DHT22;11798;51.528;7.240;2023-04-15T08:50:04;9.90;99.90
23259;DHT22;11798;51.528;7.240;2023-04-15T08:52:31;9.90;99.90
23259;DHT22;11798;51.528;7.240;2023-04-15T08:54:57;9.90;99.90
23259;DHT22;11798;51.528;7.240;2023-04-15T08:57:27;9.90;99.90
23259;DHT22;11798;51.528;7.240;2023-04-15T08:59:55;10.00;99.90
23259;DHT22;11798;51.528;7.240;2023-04-15T09:02:23;10.10;99.90
23259;DHT22;11798;51.528;7.240;2023-04-15T09:04:50;9.90;99.90
23259;DHT22;11798;51.528;7.240;2023-04-15T09:07:15;9.90;99.90
23259;DHT22;11798;51.528;7.240;2023-04-15T09:09:41;10.00;99.90
23259;DHT22;11798;51.528;7.240;2023-04-15T09:12:08;9.80;99.90
23259;DHT22;11798;51.528;7.240;2023-04-15T09:14:33;9.80;99.90
23259;DHT22;11798;51.528;7.240;2023-04-15T09:17:01;9.80;99.90
23259;DHT22;11798;51.528;7.240;2023-04-15T09:19:27;9.60;99.90
23259;DHT22;11798;51.528;7.240;2023-04-15T09:21:55;9.60;99.90
23259;DHT22;11798;51.528;7.240;2023-04-15T09:24:21;9.80;99.90
23259;DHT22;11798;51.528;7.240;2023-04-15T09:26:51;9.80;99.90
23259;DHT22;11798;51.528;7.240;2023-04-15T09:29:17;9.60;99.90
23259;DHT22;11798;51.528;7.240;2023-04-15T09:31:46;9.50;99.90
23259;DHT22;11798;51.528;7.240;2023-04-15T09:34:12;9.60;99.90
23259;DHT22;11798;51.528;7.240;2023-04-15T09:39:13;9.60;99.90
23259;DHT22;11798;51.528;7.240;2023-04-15T09:41:39;9.80;99.90
23259;DHT22;11798;51.528;7.240;2023-04-15T09:44:05;9.90;99.90
23259;DHT22;11798;51.528;7.240;2023-04-15T09:46:44;9.90;99.90
23259;DHT22;11798;51.528;7.240;2023-04-15T09:49:11;10.00;99.90
23259;DHT22;11798;51.528;7.240;2023-04-15T09:51:37;10.20;99.90
23259;DHT22;11798;51.528;7.240;2023-04-15T09:54:04;10.40;99.90
23259;DHT22;11798;51.528;7.240;2023-04-15T09:56:37;10.30;99.90
23259;DHT22;11798;51.528;7.240;2023-04-15T09:59:06;10.20;99.90
23259;DHT22;11798;51.528;7.240;2023-04-15T10:01:32;10.20;99.90
23259;DHT22;11798;51.528;7.240;2023-04-15T10:03:58;10.40;99.90
23259;DHT22;11798;51.528;7.240;2023-04-15T10:06:27;10.40;99.90
23259;DHT22;11798;51.528;7.240;2023-04-15T10:08:54;10.50;99.90
23259;DHT22;11798;51.528;7.240;2023-04-15T10:11:21;10.50;99.90
23259;DHT22;11798;51.528;7.240;2023-04-15T10:13:49;10.40;99.90
23259;DHT22;11798;51.528;7.240;2023-04-15T10:16:18;10.50;99.90
23259;DHT22;11798;51.528;7.240;2023-04-15T10:18:47;10.50;99.90
23259;DHT22;11798;51.528;7.240;2023-04-15T10:21:15;10.50;99.90
23259;DHT22;11798;51.528;7.240;2023-04-15T10:23:44;10.40;99.90
23259;DHT22;11798;51.528;7.240;2023-04-15T10:26:11;10.50;99.90
23259;DHT22;11798;51.528;7.240;2023-04-15T10:28:39;10.50;99.90
23259;DHT22;11798;51.528;7.240;2023-04-15T10:31:05;10.40;99.90
23259;DHT22;11798;51.528;7.240;2023-04-15T10:33:32;10.40;99.90
23259;DHT22;11798;51.528;7.240;2023-04-15T10:35:58;10.30;99.90
23259;DHT22;11798;51.528;7.240;2023-04-15T10:38:38;10.30;99.90
23259;DHT22;11798;51.528;7.240;2023-04-15T10:41:19;10.30;99.90
23259;DHT22;11798;51.528;7.240;2023-04-15T10:44:15;10.20;99.90
23259;DHT22;11798;51.528;7.240;2023-04-15T10:46:44;10.20;99.90
23259;DHT22;11798;51.528;7.240;2023-04-15T10:49:16;10.10;99.90
23259;DHT22;11798;51.528;7.240;2023-04-15T10:51:52;10.20;99.90
23259;DHT22;11798;51.528;7.240;2023-04-15T10:59:38;9.90;99.90
23259;DHT22;11798;51.528;7.240;2023-04-15T11:05:05;9.90;99.90
23259;DHT22;11798;51.528;7.240;2023-04-15T11:07:54;9.90;99.90
23259;DHT22;11798;51.528;7.240;2023-04-15T11:12:46;9.90;99.90
23259;DHT22;11798;51.528;7.240;2023-04-15T11:15:39;9.90;99.90
23259;DHT22;11798;51.528;7.240;2023-04-15T11:18:18;9.90;99.90
23259;DHT22;11798;51.528;7.240;2023-04-15T11:20:47;9.90;99.90
23259;DHT22;11798;51.528;7.240;2023-04-15T11:23:30;9.90;99.90
23259;DHT22;11798;51.528;7.240;2023-04-15T11:25:57;10.00;99.90
23259;DHT22;11798;51.528;7.240;2023-04-15T11:28:28;10.00;99.90
23259;DHT22;11798;51.528;7.240;2023-04-15T11:30:55;10.00;99.90
23259;DHT22;11798;51.528;7.240;2023-04-15T11:33:22;10.00;99.90
23259;DHT22;11798;51.528;7.240;2023-04-15T11:35:48;10.00;99.90
23259;DHT22;11798;51.528;7.240;2023-04-15T11:38:14;10.00;99.90
23259;DHT22;11798;51.528;7.240;2023-04-15T11:40:42;10.00;99.90
23259;DHT22;11798;51.528;7.240;2023-04-15T11:48:13;9.80;99.90
23259;DHT22;11798;51.528;7.240;2023-04-15T11:50:39;9.80;99.90
23259;DHT22;11798;51.528;7.240;2023-04-15T11:53:07;9.80;99.90
23259;DHT22;11798;51.528;7.240;2023-04-15T11:58:15;9.70;99.90
23259;DHT22;11798;51.528;7.240;2023-04-15T12:00:47;9.70;99.90
23259;DHT22;11798;51.528;7.240;2023-04-15T12:03:24;9.70;99.90
23259;DHT22;11798;51.528;7.240;2023-04-15T12:06:18;9.60;99.90
23259;DHT22;11798;51.528;7.240;2023-04-15T12:14:09;9.60;99.90
23259;DHT22;11798;51.528;7.240;2023-04-15T12:16:38;9.60;99.90
23259;DHT22;11798;51.528;7.240;2023-04-15T12:19:07;9.70;99.90
23259;DHT22;11798;51.528;7.240;2023-04-15T12:21:36;9.80;99.90
23259;DHT22;11798;51.528;7.240;2023-04-15T12:24:04;9.90;99.90
23259;DHT22;11798;51.528;7.240;2023-04-15T12:26:51;9.90;99.90
23259;DHT22;11798;51.528;7.240;2023-04-15T12:29:18;9.90;99.90
23259;DHT22;11798;51.528;7.240;2023-04-15T12:31:52;9.90;99.90
23259;DHT22;11798;51.528;7.240;2023-04-15T12:34:56;9.90;99.90
23259;DHT22;11798;51.528;7.240;2023-04-15T12:37:22;9.90;99.90
23259;DHT22;11798;51.528;7.240;2023-04-15T12:39:48;10.00;99.90
23259;DHT22;11798;51.528;7.240;2023-04-15T12:42:16;10.00;99.90
23259;DHT22;11798;51.528;7.240;2023-04-15T12:44:42;10.00;99.90
23259;DHT22;11798;51.528;7.240;2023-04-15T12:47:09;10.00;99.90
23259;DHT22;11798;51.528;7.240;2023-04-15T12:49:35;10.00;99.90
23259;DHT22;11798;51.528;7.240;2023-04-15T12:52:01;10.00;99.90
23259;DHT22;11798;51.528;7.240;2023-04-15T12:54:28;10.10;99.90
23259;DHT22;11798;51.528;7.240;2023-04-15T12:56:54;10.10;99.90
23259;DHT22;11798;51.528;7.240;2023-04-15T12:59:21;10.20;99.90
23259;DHT22;11798;51.528;7.240;2023-04-15T13:01:48;10.30;99.90
23259;DHT22;11798;51.528;7.240;2023-04-15T13:04:15;10.30;99.90
23259;DHT22;11798;51.528;7.240;2023-04-15T13:06:41;10.40;99.90
23259;DHT22;11798;51.528;7.240;2023-04-15T13:09:07;10.30;99.90
23259;DHT22;11798;51.528;7.240;2023-04-15T13:11:33;10.20;99.90
23259;DHT22;11798;51.528;7.240;2023-04-15T13:14:04;10.20;99.90
23259;DHT22;11798;51.528;7.240;2023-04-15T13:16:30;10.20;99.90
23259;DHT22;11798;51.528;7.240;2023-04-15T13:19:00;10.10;99.90
23259;DHT22;11798;51.528;7.240;2023-04-15T13:21:26;10.10;99.90
23259;DHT22;11798;51.528;7.240;2023-04-15T13:23:53;10.10;99.90
23259;DHT22;11798;51.528;7.240;2023-04-15T13:26:18;10.10;99.90
23259;DHT22;11798;51.528;7.240;2023-04-15T13:28:44;10.10;99.90
23259;DHT22;11798;51.528;7.240;2023-04-15T13:31:10;10.00;99.90
23259;DHT22;11798;51.528;7.240;2023-04-15T13:33:36;10.10;99.90
23259;DHT22;11798;51.528;7.240;2023-04-15T13:36:02;10.10;99.90
23259;DHT22;11798;51.528;7.240;2023-04-15T13:38:27;10.10;99.90
23259;DHT22;11798;51.528;7.240;2023-04-15T13:40:53;10.10;99.90
23259;DHT22;11798;51.528;7.240;2023-04-15T13:43:19;10.00;99.90
23259;DHT22;11798;51.528;7.240;2023-04-15T13:45:46;10.10;99.90
23259;DHT22;11798;51.528;7.240;2023-04-15T13:48:12;10.10;99.90
23259;DHT22;11798;51.528;7.240;2023-04-15T13:50:39;10.10;99.90
23259;DHT22;11798;51.528;7.240;2023-04-15T13:53:10;10.00;99.90
23259;DHT22;11798;51.528;7.240;2023-04-15T13:55:35;10.10;99.90
23259;DHT22;11798;51.528;7.240;2023-04-15T13:58:03;10.00;99.90
23259;DHT22;11798;51.528;7.240;2023-04-15T14:00:28;10.00;99.90
23259;DHT22;11798;51.528;7.240;2023-04-15T14:02:54;10.00;99.90
23259;DHT22;11798;51.528;7.240;2023-04-15T14:05:20;10.00;99.90
23259;DHT22;11798;51.528;7.240;2023-04-15T14:07:45;10.00;99.90
23259;DHT22;11798;51.528;7.240;2023-04-15T14:10:11;10.00;99.90
23259;DHT22;11798;51.528;7.240;2023-04-15T14:12:37;10.00;99.90
23259;DHT22;11798;51.528;7.240;2023-04-15T14:15:03;10.00;99.90
23259;DHT22;11798;51.528;7.240;2023-04-15T14:17:29;10.00;99.90
23259;DHT22;11798;51.528;7.240;2023-04-15T14:19:55;10.00;99.90
23259;DHT22;11798;51.528;7.240;2023-04-15T14:22:20;10.00;99.90
23259;DHT22;11798;51.528;7.240;2023-04-15T14:24:46;10.00;99.90
23259;DHT22;11798;51.528;7.240;2023-04-15T14:27:13;9.90;99.90
23259;DHT22;11798;51.528;7.240;2023-04-15T14:29:39;9.90;99.90
23259;DHT22;11798;51.528;7.240;2023-04-15T14:32:05;9.90;99.90
23259;DHT22;11798;51.528;7.240;2023-04-15T14:34:31;9.90;99.90
23259;DHT22;11798;51.528;7.240;2023-04-15T14:36:56;9.90;99.90
23259;DHT22;11798;51.528;7.240;2023-04-15T14:39:22;9.70;99.90
23259;DHT22;11798;51.528;7.240;2023-04-15T14:41:48;9.80;99.90
23259;DHT22;11798;51.528;7.240;2023-04-15T14:44:13;9.70;99.90
23259;DHT22;11798;51.528;7.240;2023-04-15T14:46:39;9.60;99.90
23259;DHT22;11798;51.528;7.240;2023-04-15T14:49:05;9.60;99.90
23259;DHT22;11798;51.528;7.240;2023-04-15T14:51:31;9.60;99.90
23259;DHT22;11798;51.528;7.240;2023-04-15T14:53:57;9.60;99.90
23259;DHT22;11798;51.528;7.240;2023-04-15T14:56:22;9.50;99.90
23259;DHT22;11798;51.528;7.240;2023-04-15T14:58:48;9.50;99.90
23259;DHT22;11798;51.528;7.240;2023-04-15T15:01:14;9.50;99.90
23259;DHT22;11798;51.528;7.240;2023-04-15T15:03:40;9.40;99.90
23259;DHT22;11798;51.528;7.240;2023-04-15T15:06:06;9.50;99.90
23259;DHT22;11798;51.528;7.240;2023-04-15T15:08:32;9.40;99.90
23259;DHT22;11798;51.528;7.240;2023-04-15T15:10:57;9.50;99.90
23259;DHT22;11798;51.528;7.240;2023-04-15T15:13:23;9.40;99.90
23259;DHT22;11798;51.528;7.240;2023-04-15T15:15:49;9.40;99.90
23259;DHT22;11798;51.528;7.240;2023-04-15T15:18:16;9.50;99.90
23259;DHT22;11798;51.528;7.240;2023-04-15T15:20:43;9.50;99.90
23259;DHT22;11798;51.528;7.240;2023-04-15T15:23:09;9.30;99.90
23259;DHT22;11798;51.528;7.240;2023-04-15T15:25:35;9.30;99.90
23259;DHT22;11798;51.528;7.240;2023-04-15T15:28:00;9.30;99.90
23259;DHT22;11798;51.528;7.240;2023-04-15T15:30:26;9.30;99.90
23259;DHT22;11798;51.528;7.240;2023-04-15T15:32:52;9.30;99.90
23259;DHT22;11798;51.528;7.240;2023-04-15T15:35:17;9.20;99.90
23259;DHT22;11798;51.528;7.240;2023-04-15T15:37:44;9.20;99.90
23259;DHT22;11798;51.528;7.240;2023-04-15T15:40:10;9.30;99.90
23259;DHT22;11798;51.528;7.240;2023-04-15T15:42:36;9.20;99.90
23259;DHT22;11798;51.528;7.240;2023-04-15T15:45:03;9.20;99.90
23259;DHT22;11798;51.528;7.240;2023-04-15T15:47:29;9.10;99.90
23259;DHT22;11798;51.528;7.240;2023-04-15T15:49:54;9.00;99.90
23259;DHT22;11798;51.528;7.240;2023-04-15T15:52:20;9.00;99.90
23259;DHT22;11798;51.528;7.240;2023-04-15T15:54:46;9.00;99.90
23259;DHT22;11798;51.528;7.240;2023-04-15T15:57:12;8.90;99.90
23259;DHT22;11798;51.528;7.240;2023-04-15T15:59:37;8.80;99.90
23259;DHT22;11798;51.528;7.240;2023-04-15T16:02:11;8.90;99.90
23259;DHT22;11798;51.528;7.240;2023-04-15T16:04:37;8.80;99.90
23259;DHT22;11798;51.528;7.240;2023-04-15T16:07:03;8.80;99.90
23259;DHT22;11798;51.528;7.240;2023-04-15T16:09:29;8.90;99.90